Time;durP1;ratioP1;P1;durP2;ratioP2;P2;SDS_P1;SDS_P2;PMS_P1;PMS_P2;Temp;Humidity;BMP_temperature;BMP_pressure;BME280_temperature;BME280_humidity;BME280_pressure;Samples;Min_cycle;Max_cycle;Signal;HPM_P1;HPM_P2
2023/03/18 00:05:33;;;;;;;10.43;6.17;;;11.90;99.90;;;;;;2613196;54;20119;-70
2023/03/18 00:11:21;;;;;;;5.70;5.10;;;11.90;99.90;;;;;;2612582;54;20948;-68
2023/03/18 00:17:09;;;;;;;7.73;6.30;;;11.80;99.90;;;;;;2612134;54;20242;-70
2023/03/18 00:22:57;;;;;;;9.33;6.33;;;11.90;99.90;;;;;;2612999;39;20715;-69
2023/03/18 00:32:48;;;;;;;8.10;6.40;;;11.70;99.90;;;;;;2611727;54;20394;-70
2023/03/18 00:38:35;;;;;;;12.63;6.70;;;11.80;99.90;;;;;;2613570;54;20929;-69
2023/03/18 00:44:25;;;;;;;12.10;6.53;;;11.80;99.90;;;;;;2613862;39;20579;-70
2023/03/18 00:50:13;;;;;;;7.20;6.50;;;11.90;99.90;;;;;;2609157;54;20450;-69
2023/03/18 00:56:01;;;;;;;12.83;7.43;;;11.80;99.90;;;;;;2612344;54;20406;-71
2023/03/18 01:01:48;;;;;;;7.53;6.53;;;11.70;99.90;;;;;;2610264;54;20157;-70
2023/03/18 01:07:36;;;;;;;7.27;6.70;;;11.70;99.90;;;;;;2613005;54;20129;-70
2023/03/18 01:13:24;;;;;;;8.30;6.40;;;11.60;99.90;;;;;;2612575;39;20506;-69
2023/03/18 01:19:13;;;;;;;11.07;6.27;;;11.50;99.90;;;;;;2610457;54;20438;-71
2023/03/18 01:25:01;;;;;;;9.17;6.07;;;11.30;99.90;;;;;;2612928;54;20961;-70
2023/03/18 01:28:16;;;;;;;6.63;6.03;;;11.40;99.90;;;;;;2612156;54;20392;-70
2023/03/18 01:30:43;;;;;;;8.10;6.53;;;11.30;99.90;;;;;;2612237;54;20186;-71
2023/03/18 01:36:30;;;;;;;10.30;6.50;;;11.50;99.90;;;;;;2611070;39;20798;-72
2023/03/18 01:42:20;;;;;;;6.87;6.00;;;11.50;99.90;;;;;;2612144;54;20254;-71
2023/03/18 01:48:14;;;;;;;11.53;6.83;;;11.80;99.90;;;;;;2611457;39;21313;-70
2023/03/18 01:54:05;;;;;;;6.87;6.17;;;11.60;99.90;;;;;;2612943;54;20387;-70
2023/03/18 01:59:56;;;;;;;7.10;6.40;;;11.80;99.90;;;;;;2608470;54;20391;-70
2023/03/18 02:05:44;;;;;;;6.73;6.03;;;11.80;99.90;;;;;;2610760;54;20372;-70
2023/03/18 02:11:37;;;;;;;9.53;6.77;;;11.90;99.90;;;;;;2609971;46;20411;-69
2023/03/18 02:17:28;;;;;;;8.50;6.23;;;11.90;99.90;;;;;;2611486;54;20492;-69
2023/03/18 02:23:21;;;;;;;10.30;6.67;;;11.90;99.90;;;;;;2611852;46;20622;-71
2023/03/18 02:32:49;;;;;;;6.70;6.10;;;12.00;99.90;;;;;;2610161;54;20390;-70
2023/03/18 02:38:42;;;;;;;12.57;7.03;;;11.90;99.90;;;;;;2611685;54;20458;-70
2023/03/18 02:44:31;;;;;;;8.13;6.27;;;11.80;99.90;;;;;;2609088;54;20371;-71
2023/03/18 02:50:20;;;;;;;11.80;6.10;;;11.70;99.90;;;;;;2608705;54;20398;-70
2023/03/18 02:56:09;;;;;;;7.43;6.07;;;11.40;99.90;;;;;;2609102;54;20374;-71
2023/03/18 03:01:57;;;;;;;9.20;6.60;;;11.20;99.90;;;;;;2609548;54;20376;-69
2023/03/18 03:07:45;;;;;;;8.57;6.00;;;11.10;99.90;;;;;;2610689;54;20366;-70
2023/03/18 03:13:33;;;;;;;6.87;5.97;;;10.80;99.90;;;;;;2610032;54;20399;-70
2023/03/18 03:19:22;;;;;;;8.80;6.87;;;10.60;99.90;;;;;;2609046;54;20498;-70
2023/03/18 03:25:11;;;;;;;9.10;6.73;;;10.70;99.90;;;;;;2609026;54;21178;-72
2023/03/18 03:28:16;;;;;;;10.53;6.40;;;10.80;99.90;;;;;;2608947;54;20403;-72
2023/03/18 03:30:42;;;;;;;9.03;6.27;;;10.90;99.90;;;;;;2609519;54;20426;-72
2023/03/18 03:36:30;;;;;;;7.80;5.63;;;11.10;99.90;;;;;;2610466;54;20455;-72
2023/03/18 03:42:18;;;;;;;8.17;6.10;;;10.90;99.90;;;;;;2608881;54;20150;-71
2023/03/18 03:48:06;;;;;;;8.50;5.63;;;10.70;99.90;;;;;;2609423;54;20126;-71
2023/03/18 03:53:54;;;;;;;7.33;6.40;;;10.60;99.90;;;;;;2609535;54;20282;-72
2023/03/18 03:59:42;;;;;;;7.80;6.23;;;10.60;99.90;;;;;;2609689;54;20181;-72
2023/03/18 04:05:30;;;;;;;8.20;6.57;;;10.60;99.90;;;;;;2610390;54;20142;-72
2023/03/18 04:11:17;;;;;;;13.93;6.57;;;10.60;99.90;;;;;;2610063;54;20122;-72
2023/03/18 04:17:06;;;;;;;7.27;6.57;;;10.40;99.90;;;;;;2611322;54;20138;-72
2023/03/18 04:22:54;;;;;;;9.47;7.40;;;10.50;99.90;;;;;;2611784;46;21163;-72
2023/03/18 04:32:47;;;;;;;10.73;7.03;;;10.90;99.90;;;;;;2611771;54;20395;-72
2023/03/18 04:38:35;;;;;;;18.90;7.63;;;10.90;99.90;;;;;;2611205;54;20443;-72
2023/03/18 04:44:23;;;;;;;11.23;7.63;;;11.10;99.90;;;;;;2611451;54;20262;-72
2023/03/18 04:50:12;;;;;;;8.40;7.43;;;11.20;99.90;;;;;;2612949;39;20734;-72
2023/03/18 04:56:00;;;;;;;7.70;6.97;;;11.20;99.90;;;;;;2613960;54;20397;-71
2023/03/18 05:01:48;;;;;;;13.00;6.90;;;11.30;99.90;;;;;;2611621;54;20391;-73
2023/03/18 05:07:36;;;;;;;8.00;7.10;;;11.30;99.90;;;;;;2612804;54;20146;-72
2023/03/18 05:13:24;;;;;;;8.30;7.40;;;11.40;99.90;;;;;;2614667;54;20479;-72
2023/03/18 05:19:12;;;;;;;9.50;7.70;;;11.40;99.90;;;;;;2612318;54;20130;-72
2023/03/18 05:25:01;;;;;;;13.53;8.50;;;11.40;99.90;;;;;;2612860;54;20382;-75
2023/03/18 05:28:16;;;;;;;11.50;8.47;;;11.40;99.90;;;;;;2611564;47;20420;-75
2023/03/18 05:30:42;;;;;;;17.70;7.60;;;11.40;99.90;;;;;;2610826;54;20401;-75
2023/03/18 05:36:29;;;;;;;9.83;7.70;;;11.50;99.90;;;;;;2611660;31;20595;-75
2023/03/18 05:42:18;;;;;;;12.50;7.37;;;11.50;99.90;;;;;;2609479;54;20149;-76
2023/03/18 05:48:06;;;;;;;12.40;8.13;;;11.50;99.90;;;;;;2610880;54;20407;-75
2023/03/18 05:53:53;;;;;;;9.27;7.80;;;11.60;99.90;;;;;;2609578;54;20182;-76
2023/03/18 05:59:42;;;;;;;8.80;7.83;;;11.60;99.90;;;;;;2610224;54;20161;-76
2023/03/18 06:05:30;;;;;;;10.97;8.30;;;11.70;99.90;;;;;;2610962;54;20363;-75
2023/03/18 06:11:18;;;;;;;11.20;6.83;;;11.70;99.90;;;;;;2610765;54;20395;-74
2023/03/18 06:17:06;;;;;;;15.57;7.93;;;11.70;99.90;;;;;;2609755;54;20161;-76
2023/03/18 06:22:54;;;;;;;12.60;7.90;;;11.70;99.90;;;;;;2612497;54;20130;-76
2023/03/18 06:32:52;;;;;;;9.63;8.47;;;11.70;99.90;;;;;;2612529;54;20442;-75
2023/03/18 06:38:40;;;;;;;12.03;8.97;;;11.70;99.90;;;;;;2612088;54;20398;-75
2023/03/18 06:44:27;;;;;;;9.40;8.57;;;11.70;99.90;;;;;;2612747;39;20836;-73
2023/03/18 06:50:15;;;;;;;10.30;8.30;;;11.70;99.90;;;;;;2610871;54;20154;-73
2023/03/18 06:56:04;;;;;;;9.70;8.70;;;11.80;99.90;;;;;;2611038;46;20394;-73
2023/03/18 07:01:52;;;;;;;9.60;8.70;;;11.80;99.90;;;;;;2611797;39;20702;-73
2023/03/18 07:07:40;;;;;;;10.50;8.80;;;11.90;99.90;;;;;;2613011;54;20238;-73
2023/03/18 07:13:28;;;;;;;8.57;7.87;;;12.00;99.90;;;;;;2609694;54;20431;-73
2023/03/18 07:16:32;;;;;;;11.47;8.37;;;12.20;99.90;;;;;;2610035;54;20431;-73
2023/03/18 07:18:57;;;;;;;8.77;7.67;;;12.20;99.90;;;;;;2611249;54;20174;-73
2023/03/18 07:24:45;;;;;;;8.17;7.40;;;12.40;99.90;;;;;;2608727;54;21031;-72
2023/03/18 07:30:33;;;;;;;8.97;8.10;;;12.50;99.90;;;;;;2610593;54;20173;-74
2023/03/18 07:36:21;;;;;;;10.07;9.07;;;13.20;99.90;;;;;;2608292;54;20126;-73
2023/03/18 07:42:09;;;;;;;13.37;9.70;;;13.70;99.90;;;;;;2610416;54;20122;-73
2023/03/18 07:47:57;;;;;;;10.37;9.47;;;14.80;99.90;;;;;;2612264;54;20359;-73
2023/03/18 07:53:45;;;;;;;10.67;9.77;;;15.10;99.90;;;;;;2610591;54;20123;-73
2023/03/18 07:59:33;;;;;;;10.63;9.70;;;16.50;95.00;;;;;;2606800;54;20269;-73
2023/03/18 08:05:20;;;;;;;10.80;9.63;;;16.50;89.30;;;;;;2611857;54;20227;-73
2023/03/18 08:11:08;;;;;;;11.83;10.67;;;17.20;81.40;;;;;;2611964;54;20664;-73
2023/03/18 08:16:56;;;;;;;11.87;10.97;;;16.70;79.30;;;;;;2612112;54;20932;-73
2023/03/18 08:22:44;;;;;;;12.47;11.20;;;17.60;63.80;;;;;;2613741;46;20459;-73
2023/03/18 08:32:51;;;;;;;10.73;10.13;;;17.80;42.60;;;;;;2612446;54;20449;-73
2023/03/18 08:38:39;;;;;;;10.83;10.13;;;17.00;46.30;;;;;;2610751;54;20422;-72
2023/03/18 08:44:26;;;;;;;11.27;10.60;;;18.20;29.40;;;;;;2610430;54;20633;-73
2023/03/18 08:50:14;;;;;;;10.63;10.03;;;19.10;22.90;;;;;;2609676;39;20311;-73
2023/03/18 08:56:06;;;;;;;11.17;10.47;;;18.20;29.60;;;;;;2610845;54;20404;-75
2023/03/18 09:01:54;;;;;;;12.10;11.50;;;17.60;39.20;;;;;;2605964;54;20406;-73
2023/03/18 09:07:42;;;;;;;11.30;10.57;;;16.90;39.40;;;;;;2605046;54;20135;-72
2023/03/18 09:13:30;;;;;;;10.67;9.90;;;17.90;33.80;;;;;;2609820;54;20406;-72
2023/03/18 09:19:17;;;;;;;10.87;10.17;;;17.90;29.30;;;;;;2609409;54;20150;-73
2023/03/18 09:25:07;;;;;;;10.70;10.10;;;16.70;44.90;;;;;;2610394;54;20649;-73
2023/03/18 09:28:18;;;;;;;9.80;9.10;;;16.10;58.50;;;;;;2608754;54;20400;-72
2023/03/18 09:30:43;;;;;;;11.07;10.30;;;15.90;69.70;;;;;;2607971;54;20423;-73
2023/03/18 09:36:31;;;;;;;11.30;10.30;;;15.70;87.90;;;;;;2607879;54;20139;-73
2023/03/18 09:42:19;;;;;;;10.70;9.93;;;16.60;51.20;;;;;;2611380;39;20870;-73
2023/03/18 10:01:18;;;;;;;10.73;10.03;;;17.00;32.50;;;;;;2605008;54;20949;-73
2023/03/18 10:19:56;;;;;;;11.70;11.13;;;19.10;13.40;;;;;;2608721;54;20364;-74
2023/03/18 10:25:57;;;;;;;13.40;12.60;;;19.40;11.50;;;;;;2609485;54;20387;-73
2023/03/18 10:45:55;;;;;;;12.10;11.50;;;20.60;6.70;;;;;;2606146;54;20424;-74
2023/03/18 10:57:56;;;;;;;12.13;11.30;;;21.10;5.00;;;;;;2608144;54;20440;-71
2023/03/18 11:23:13;;;;;;;11.87;11.00;;;22.00;2.50;;;;;;2613353;54;21101;-72
2023/03/18 11:38:33;;;;;;;11.27;10.73;;;20.60;6.10;;;;;;2614020;39;20803;-73
2023/03/18 12:04:34;;;;;;;12.40;11.80;;;19.10;5.60;;;;;;2611526;54;20383;-75
2023/03/18 13:01:16;;;;;;;11.70;11.10;;;20.60;1.00;;;;;;2607074;54;20444;-73
2023/03/18 13:10:23;;;;;;;11.83;11.13;;;21.30;1.00;;;;;;2610243;54;20948;-72
2023/03/18 13:16:13;;;;;;;11.43;10.83;;;21.10;1.00;;;;;;2610895;39;20985;-73
2023/03/18 13:48:34;;;;;;;12.80;12.20;;;21.60;1.00;;;;;;2612951;39;20941;-74
2023/03/18 13:54:22;;;;;;;12.80;12.20;;;21.80;1.00;;;;;;2614795;54;20483;-73
2023/03/18 14:13:27;;;;;;;12.77;12.07;;;18.90;1.00;;;;;;2613764;54;20391;-73
2023/03/18 14:19:30;;;;;;;13.47;12.87;;;19.50;1.00;;;;;;2612547;54;20519;-75
2023/03/18 14:32:00;;;;;;;13.40;12.80;;;17.80;2.60;;;;;;2613183;54;20399;-74
2023/03/18 14:41:19;;;;;;;12.53;12.00;;;17.30;7.80;;;;;;2611082;54;21004;-73
2023/03/18 14:53:55;;;;;;;9.10;8.50;;;17.10;12.70;;;;;;2613041;54;20513;-73
2023/03/18 14:59:43;;;;;;;7.20;6.60;;;15.10;99.90;;;;;;2613757;39;21069;-75
2023/03/18 15:05:35;;;;;;;6.90;5.47;;;14.30;99.90;;;;;;2612833;54;20160;-76
2023/03/18 15:11:24;;;;;;;5.80;5.33;;;15.00;99.90;;;;;;2612794;39;20791;-77
2023/03/18 15:17:15;;;;;;;6.63;6.07;;;14.40;99.90;;;;;;2613148;54;21166;-76
2023/03/18 15:23:07;;;;;;;6.10;5.60;;;15.30;99.90;;;;;;2612015;54;20511;-76
2023/03/18 15:35:27;;;;;;;4.90;4.60;;;14.60;99.90;;;;;;2613287;54;20395;-77
2023/03/18 15:41:20;;;;;;;5.97;4.80;;;15.00;99.90;;;;;;2613396;39;20758;-77
2023/03/18 15:47:13;;;;;;;6.30;5.80;;;15.70;99.90;;;;;;2610406;54;23205;-74
2023/03/18 15:59:31;;;;;;;5.23;4.90;;;15.50;99.90;;;;;;2610735;54;20403;-75
2023/03/18 16:05:22;;;;;;;6.40;5.90;;;15.00;99.90;;;;;;2613979;54;20491;-75
2023/03/18 16:11:13;;;;;;;5.50;5.00;;;14.80;99.90;;;;;;2613082;54;20435;-76
2023/03/18 16:17:00;;;;;;;13.13;6.60;;;15.10;99.90;;;;;;2613664;54;20394;-76
2023/03/18 16:22:49;;;;;;;8.33;7.73;;;17.40;99.90;;;;;;2611775;54;20158;-75
2023/03/18 16:28:37;;;;;;;10.57;9.57;;;17.50;99.90;;;;;;2613398;54;20427;-75
2023/03/18 16:34:26;;;;;;;9.30;8.50;;;15.90;99.90;;;;;;2609756;54;21019;-76
2023/03/18 16:40:23;;;;;;;9.37;8.47;;;17.50;99.90;;;;;;2612406;54;20491;-75
2023/03/18 16:46:13;;;;;;;8.30;7.60;;;15.20;99.90;;;;;;2611445;54;20359;-75
2023/03/18 16:52:01;;;;;;;9.00;8.20;;;16.10;99.90;;;;;;2612647;54;20435;-75
2023/03/18 16:57:50;;;;;;;8.83;7.53;;;16.20;99.90;;;;;;2612226;39;20728;-74
2023/03/18 17:03:38;;;;;;;9.73;8.80;;;14.40;99.90;;;;;;2612103;54;20383;-75
2023/03/18 17:09:27;;;;;;;7.00;6.37;;;14.00;99.90;;;;;;2611237;54;20392;-75
2023/03/18 17:15:17;;;;;;;7.50;6.03;;;13.80;99.90;;;;;;2612529;54;20387;-74
2023/03/18 17:21:05;;;;;;;6.53;6.03;;;13.60;99.90;;;;;;2611434;54;20391;-75
2023/03/18 17:26:53;;;;;;;6.70;6.20;;;13.40;99.90;;;;;;2608726;54;20153;-78
2023/03/18 17:32:41;;;;;;;10.53;6.80;;;13.30;99.90;;;;;;2608987;54;20399;-76
2023/03/18 17:41:51;;;;;;;9.17;7.57;;;12.90;99.90;;;;;;2613095;54;20465;-76
2023/03/18 17:47:39;;;;;;;8.27;7.47;;;12.70;99.90;;;;;;2610022;54;20255;-76
2023/03/18 17:59:41;;;;;;;11.30;9.40;;;12.10;99.90;;;;;;2612614;54;20396;-76
2023/03/18 18:05:30;;;;;;;11.27;10.10;;;11.90;99.90;;;;;;2613116;54;20375;-77
2023/03/18 18:11:23;;;;;;;10.83;9.87;;;11.70;99.90;;;;;;2613806;54;20367;-77
2023/03/18 18:17:14;;;;;;;11.80;10.57;;;11.70;99.90;;;;;;2613202;54;20402;-75
2023/03/18 18:23:01;;;;;;;11.80;10.60;;;11.60;99.90;;;;;;2612985;54;20399;-77
2023/03/18 18:28:51;;;;;;;15.17;13.10;;;11.40;99.90;;;;;;2611873;54;20520;-77
2023/03/18 18:34:38;;;;;;;37.07;29.17;;;11.20;99.90;;;;;;2609292;54;20391;-77
2023/03/18 18:37:22;;;;;;;24.50;20.37;;;11.20;99.90;;;;;;2613230;54;20400;-76
2023/03/18 18:43:54;;;;;;;20.00;15.97;;;11.10;99.90;;;;;;2610992;54;20379;-76
2023/03/18 18:49:42;;;;;;;15.27;12.93;;;10.90;99.90;;;;;;2612559;39;20744;-75
2023/03/18 18:55:30;;;;;;;17.47;15.17;;;10.70;99.90;;;;;;2608605;54;20283;-75
2023/03/18 19:01:19;;;;;;;12.33;10.90;;;10.50;99.90;;;;;;2611652;54;20390;-76
2023/03/18 19:07:07;;;;;;;13.80;12.50;;;10.30;99.90;;;;;;2612850;54;20507;-76
2023/03/18 19:12:55;;;;;;;16.70;13.20;;;10.20;99.90;;;;;;2612992;54;20166;-76
2023/03/18 19:18:43;;;;;;;17.30;13.63;;;10.10;99.90;;;;;;2612402;54;20386;-76
2023/03/18 19:24:31;;;;;;;18.93;13.97;;;10.00;99.90;;;;;;2612306;54;20123;-75
2023/03/18 19:30:22;;;;;;;16.67;12.30;;;9.90;99.90;;;;;;2613984;54;20483;-76
2023/03/18 19:52:29;;;;;;;18.13;11.10;;;9.90;99.90;;;;;;2611797;39;21205;-77
2023/03/18 19:58:23;;;;;;;12.40;9.47;;;10.50;99.90;;;;;;2611854;54;20383;-77
2023/03/18 20:04:15;;;;;;;11.10;9.70;;;10.80;99.90;;;;;;2613360;54;20367;-77
2023/03/18 20:10:03;;;;;;;10.57;9.13;;;10.40;99.90;;;;;;2611038;39;20789;-76
2023/03/18 20:15:51;;;;;;;14.97;12.60;;;10.90;99.90;;;;;;2610112;54;20379;-77
2023/03/18 20:21:39;;;;;;;28.03;20.67;;;10.30;99.90;;;;;;2612670;54;20158;-76
2023/03/18 20:27:28;;;;;;;8.77;7.90;;;10.10;99.90;;;;;;2609731;54;20514;-75
2023/03/18 20:33:18;;;;;;;12.23;8.73;;;10.80;99.90;;;;;;2608301;54;20442;-77
2023/03/18 20:48:48;;;;;;;13.43;10.47;;;10.00;99.90;;;;;;2608400;54;20383;-77
2023/03/18 20:54:35;;;;;;;16.33;14.60;;;10.20;99.90;;;;;;2611127;54;20395;-76
2023/03/18 21:00:26;;;;;;;9.90;8.40;;;10.30;99.90;;;;;;2609025;54;20243;-76
2023/03/18 21:06:15;;;;;;;12.17;9.13;;;10.50;99.90;;;;;;2610003;54;20417;-76
2023/03/18 21:12:02;;;;;;;15.17;9.73;;;10.20;99.90;;;;;;2609399;54;20359;-74
2023/03/18 21:17:51;;;;;;;10.47;7.27;;;9.90;99.90;;;;;;2606645;54;20295;-75
2023/03/18 21:23:38;;;;;;;10.40;7.43;;;10.10;99.90;;;;;;2610760;39;20730;-76
2023/03/18 21:29:26;;;;;;;9.10;7.00;;;10.30;99.90;;;;;;2611400;54;20150;-76
2023/03/18 21:41:58;;;;;;;8.50;6.47;;;11.20;99.90;;;;;;2610959;54;20371;-76
2023/03/18 21:47:45;;;;;;;7.03;6.20;;;11.00;99.90;;;;;;2612106;54;20193;-76
2023/03/18 21:53:33;;;;;;;12.00;6.10;;;10.70;99.90;;;;;;2611694;54;20137;-76
2023/03/18 21:59:20;;;;;;;6.47;5.80;;;10.70;99.90;;;;;;2610107;39;20840;-76
2023/03/18 22:05:16;;;;;;;6.97;6.33;;;10.70;99.90;;;;;;2612631;39;20537;-76
2023/03/18 22:11:11;;;;;;;8.90;6.07;;;10.50;99.90;;;;;;2611594;54;20456;-76
2023/03/18 22:16:58;;;;;;;7.70;6.50;;;10.50;99.90;;;;;;2612318;54;20368;-78
2023/03/18 22:22:46;;;;;;;6.50;5.90;;;9.80;99.90;;;;;;2612055;39;20437;-75
2023/03/18 22:28:34;;;;;;;7.50;6.70;;;9.40;99.90;;;;;;2612595;54;20142;-76
2023/03/18 22:34:22;;;;;;;7.60;6.80;;;9.20;99.90;;;;;;2613787;54;20170;-76
2023/03/18 22:43:42;;;;;;;7.70;6.90;;;9.00;99.90;;;;;;2611674;54;20546;-75
2023/03/18 22:46:10;;;;;;;9.00;7.03;;;8.90;99.90;;;;;;2610672;54;20382;-75
2023/03/18 22:51:57;;;;;;;7.93;6.70;;;8.90;99.90;;;;;;2611092;54;20970;-76
2023/03/18 22:57:44;;;;;;;6.93;6.00;;;8.90;99.90;;;;;;2612207;54;20155;-76
2023/03/18 23:03:34;;;;;;;7.10;6.33;;;8.90;99.90;;;;;;2611709;54;20764;-76
2023/03/18 23:09:21;;;;;;;9.10;6.77;;;9.00;99.90;;;;;;2611210;54;20515;-76
2023/03/18 23:15:14;;;;;;;9.93;6.77;;;9.40;99.90;;;;;;2611939;54;20154;-75
2023/03/18 23:21:02;;;;;;;7.13;6.33;;;9.70;99.90;;;;;;2611879;54;20411;-76
2023/03/18 23:26:50;;;;;;;9.30;7.40;;;9.80;99.90;;;;;;2611795;54;20363;-76
2023/03/18 23:32:39;;;;;;;9.37;6.60;;;10.00;99.90;;;;;;2612628;54;20123;-75
2023/03/18 23:38:26;;;;;;;7.80;7.00;;;10.40;99.90;;;;;;2611775;54;20467;-76
2023/03/18 23:48:17;;;;;;;6.83;6.20;;;10.70;99.90;;;;;;2613661;54;20402;-75
2023/03/18 23:54:07;;;;;;;7.20;5.80;;;11.10;99.90;;;;;;2611409;39;21581;-76
2023/03/18 23:59:54;;;;;;;8.10;6.77;;;11.10;99.90;;;;;;2610416;54;20475;-76
